LICB/CIY METAR and TAF weather

Enter ICAO airport designator
Station Type Date Time Source
LICB METAR 2021/09/20 04:50 UTC NOAA

LICB 200450Z AUTO 06003KT 9999 NCD 20/15 Q1016


Station Type Date Time Source
LICB Decoded METAR 2021/09/20 04:50 UTC NOAA

Comiso As Usaf , Italy (LICB) 36-56N 014-36E
Sep 20, 2021 - 12:50 AM EDT / 2021.09.20 0450 UTC
Wind: from the ENE (060 degrees) at 3 MPH (3 KT):0
Visibility: greater than 7 mile(s):0
Temperature: 68 F (20 C)
Dew Point: 59 F (15 C)
Relative Humidity: 72%
Pressure (altimeter): 30.00 in. Hg (1016 hPa)
ob: LICB 200450Z AUTO 06003KT 9999 NCD 20/15 Q1016
cycle: 5

Station Type Date Time Source
LICB TAF 2021/09/19 18:00 UTC NOAA

TAF LICB 191700Z 1918/2018 VRB05KT CAVOK
BECMG 1916/1918 VRB05KT
BECMG 2008/2010 25012KT

Example: see airport list